Time,TemperatureF,DewpointF,PressureIn,WindDirection,WindDirectionDegrees,WindSpeedMPH,WindSpeedGustMPH,Humidity,HourlyPrecipIn,Conditions,Clouds,dailyrainin,SoftwareType,DateUTC
2013-03-12 00:00:00,57.8,50.7,29.99,SW,232,0.0,4.0,77,0.00,,---,0.00,VWS V14.01,2013-03-12 04:00:00,
2013-03-12 00:13:00,57.7,51.2,29.98,SW,215,1.0,9.0,79,0.00,,---,0.00,VWS V14.01,2013-03-12 04:13:00,
2013-03-12 00:28:00,57.5,51.4,29.97,SE,125,0.0,9.0,80,0.00,,---,0.00,VWS V14.01,2013-03-12 04:28:00,
2013-03-12 00:30:00,57.5,51.4,29.97,SE,128,0.0,9.0,80,0.00,,---,0.00,VWS V15.00,2013-03-12 04:30:00,
2013-03-12 00:44:00,57.7,51.2,29.97,East,98,0.0,6.0,79,0.00,,---,0.00,VWS V14.01,2013-03-12 04:44:00,
2013-03-12 00:59:00,57.7,51.2,29.96,South,188,0.0,7.0,79,0.00,,---,0.00,VWS V14.01,2013-03-12 04:59:00,
2013-03-12 01:00:00,57.7,51.2,29.96,WNW,298,0.0,7.0,79,0.00,,---,0.00,VWS V15.00,2013-03-12 05:00:00,
2013-03-12 01:14:00,57.8,51.3,29.95,ESE,109,0.0,5.0,79,0.00,,---,0.00,VWS V14.01,2013-03-12 05:14:00,
2013-03-12 01:29:00,57.8,51.3,29.94,WSW,240,2.0,5.0,79,0.00,,---,0.00,VWS V14.01,2013-03-12 05:29:00,
2013-03-12 01:30:00,57.8,51.3,29.94,East,92,2.0,5.0,79,0.00,,---,0.00,VWS V15.00,2013-03-12 05:30:00,
2013-03-12 01:44:00,58.2,51.7,29.94,SSE,148,1.0,5.0,79,0.00,,---,0.00,VWS V14.01,2013-03-12 05:44:00,
2013-03-12 01:59:00,58.6,52.1,29.94,SSW,194,1.0,8.0,79,0.00,,---,0.00,VWS V14.01,2013-03-12 05:59:00,
2013-03-12 02:00:00,58.6,52.1,29.95,WSW,255,1.0,8.0,79,0.00,,---,0.00,VWS V15.00,2013-03-12 06:00:00,
2013-03-12 02:14:00,58.7,52.2,29.95,SW,234,0.0,9.0,79,0.00,,---,0.00,VWS V14.01,2013-03-12 06:14:00,
2013-03-12 02:29:00,58.5,52.4,29.94,NW,323,1.0,9.0,80,0.00,,---,0.00,VWS V14.01,2013-03-12 06:29:00,
2013-03-12 02:30:00,58.5,52.4,29.94,WSW,254,0.0,9.0,80,0.00,,---,0.00,VWS V15.00,2013-03-12 06:30:00,
2013-03-12 02:44:00,58.6,52.8,29.94,West,267,3.0,6.0,81,0.00,,---,0.00,VWS V14.01,2013-03-12 06:44:00,
2013-03-12 02:59:00,58.4,52.9,29.93,West,271,0.0,6.0,82,0.00,,---,0.00,VWS V14.01,2013-03-12 06:59:00,
2013-03-12 03:00:00,58.4,52.9,29.93,SSW,200,0.0,6.0,82,0.00,,---,0.00,VWS V15.00,2013-03-12 07:00:00,
2013-03-12 03:14:00,58.0,52.9,29.92,ENE,76,1.0,4.0,83,0.00,,---,0.00,VWS V14.01,2013-03-12 07:14:00,
2013-03-12 03:29:00,57.6,52.8,29.91,ENE,70,3.0,4.0,84,0.00,,---,0.00,VWS V14.01,2013-03-12 07:29:00,
2013-03-12 03:30:00,57.6,52.8,29.91,East,86,0.0,4.0,84,0.00,,---,0.00,VWS V15.00,2013-03-12 07:30:00,
2013-03-12 03:44:00,57.3,52.8,29.91,SE,132,1.0,5.0,85,0.00,,---,0.00,VWS V14.01,2013-03-12 07:44:00,
2013-03-12 03:59:00,57.3,52.8,29.91,WNW,283,0.0,5.0,85,0.00,,---,0.00,VWS V14.01,2013-03-12 07:59:00,
2013-03-12 04:00:00,57.3,52.8,29.91,WNW,283,0.0,5.0,85,0.00,,---,0.00,VWS V15.00,2013-03-12 08:00:00,
2013-03-12 04:14:00,57.5,53.0,29.90,WSW,240,0.0,3.0,85,0.00,,---,0.00,VWS V14.01,2013-03-12 08:14:00,
2013-03-12 04:29:00,57.3,53.2,29.89,WSW,258,0.0,5.0,86,0.01,,---,0.01,VWS V14.01,2013-03-12 08:29:00,
2013-03-12 04:30:00,57.3,53.2,29.89,SE,141,0.0,5.0,86,0.01,,---,0.01,VWS V15.00,2013-03-12 08:30:00,
2013-03-12 04:44:00,57.3,53.2,29.89,SE,146,0.0,5.0,86,0.01,,---,0.01,VWS V14.01,2013-03-12 08:44:00,
2013-03-12 04:59:00,57.6,53.8,29.89,NW,307,0.0,6.0,87,0.01,,---,0.01,VWS V14.01,2013-03-12 08:59:00,
2013-03-12 05:00:00,57.6,53.8,29.89,WSW,248,2.0,6.0,87,0.01,,---,0.01,VWS V15.00,2013-03-12 09:00:00,
2013-03-12 05:14:00,57.7,53.9,29.88,NE,41,0.0,5.0,87,0.01,,---,0.01,VWS V14.01,2013-03-12 09:14:00,
2013-03-12 05:29:00,57.5,54.3,29.88,WSW,248,0.0,5.0,89,0.01,,---,0.01,VWS V14.01,2013-03-12 09:29:00,
2013-03-12 05:30:00,57.5,54.3,29.88,ENE,68,1.0,5.0,89,0.01,,---,0.01,VWS V15.00,2013-03-12 09:30:00,
2013-03-12 05:44:00,57.2,54.3,29.88,West,267,0.0,2.0,90,0.00,,---,0.01,VWS V14.01,2013-03-12 09:44:00,
2013-03-12 05:59:00,56.9,54.3,29.87,WSW,238,0.0,3.0,91,0.01,,---,0.02,VWS V14.01,2013-03-12 09:59:00,
2013-03-12 06:00:00,56.9,54.3,29.87,WSW,238,0.0,3.0,91,0.01,,---,0.02,VWS V15.00,2013-03-12 10:00:00,
2013-03-12 06:14:00,56.4,53.8,29.87,West,273,0.0,2.0,91,0.01,,---,0.02,VWS V14.01,2013-03-12 10:14:00,
2013-03-12 06:29:00,56.1,54.1,29.86,SW,215,0.0,2.0,93,0.02,,---,0.03,VWS V14.01,2013-03-12 10:29:00,
2013-03-12 06:30:00,56.1,54.1,29.86,West,269,0.0,2.0,93,0.02,,---,0.03,VWS V15.00,2013-03-12 10:30:00,
2013-03-12 06:44:00,56.1,54.4,29.86,SSW,196,0.0,7.0,94,0.02,,---,0.03,VWS V14.01,2013-03-12 10:44:00,
2013-03-12 06:59:00,56.1,54.4,29.85,West,264,0.0,7.0,94,0.03,,---,0.04,VWS V14.01,2013-03-12 10:59:00,
2013-03-12 07:00:00,56.1,54.7,29.85,West,264,0.0,7.0,95,0.03,,---,0.04,VWS V15.00,2013-03-12 11:00:00,
2013-03-12 07:14:00,56.1,54.7,29.85,WSW,249,1.0,6.0,95,0.04,,---,0.06,VWS V14.01,2013-03-12 11:14:00,
2013-03-12 07:29:00,56.0,54.9,29.84,SW,230,1.0,6.0,96,0.07,,---,0.09,VWS V14.01,2013-03-12 11:29:00,
2013-03-12 07:30:00,56.0,54.9,29.83,WSW,246,2.0,6.0,96,0.08,,---,0.10,VWS V15.00,2013-03-12 11:30:00,
2013-03-12 07:44:00,56.0,55.2,29.83,SSE,155,0.0,3.0,97,0.10,,---,0.13,VWS V14.01,2013-03-12 11:44:00,
2013-03-12 07:59:00,56.0,55.2,29.82,West,280,1.0,7.0,97,0.13,,---,0.16,VWS V14.01,2013-03-12 11:59:00,
2013-03-12 08:00:00,56.0,55.2,29.82,WSW,250,0.0,7.0,97,0.13,,---,0.16,VWS V15.00,2013-03-12 12:00:00,
2013-03-12 08:14:00,56.2,55.4,29.82,South,190,0.0,5.0,97,0.13,,---,0.17,VWS V14.01,2013-03-12 12:14:00,
2013-03-12 08:29:00,56.5,55.7,29.81,SSW,206,0.0,5.0,97,0.14,,---,0.18,VWS V14.01,2013-03-12 12:29:00,
2013-03-12 08:30:00,56.5,55.7,29.81,SSW,207,0.0,5.0,97,0.14,,---,0.18,VWS V15.00,2013-03-12 12:30:00,
2013-03-12 08:44:00,56.8,56.0,29.80,NE,43,0.0,10.0,97,0.08,,---,0.18,VWS V14.01,2013-03-12 12:44:00,
2013-03-12 08:59:00,57.0,56.2,29.80,South,182,2.0,10.0,97,0.08,,---,0.18,VWS V14.01,2013-03-12 12:59:00,
2013-03-12 09:00:00,57.0,56.2,29.80,West,259,0.0,10.0,97,0.08,,---,0.18,VWS V15.00,2013-03-12 13:00:00,
2013-03-12 09:14:00,57.3,56.5,29.80,SE,132,2.0,7.0,97,0.02,,---,0.18,VWS V14.01,2013-03-12 13:14:00,
2013-03-12 09:29:00,57.5,56.7,29.79,South,187,1.0,7.0,97,0.02,,---,0.18,VWS V14.01,2013-03-12 13:29:00,
2013-03-12 09:30:00,57.5,56.7,29.79,West,268,1.0,7.0,97,0.02,,---,0.18,VWS V15.00,2013-03-12 13:30:00,
2013-03-12 09:44:00,57.6,56.8,29.78,South,179,1.0,8.0,97,0.00,,---,0.18,VWS V14.01,2013-03-12 13:44:00,
2013-03-12 09:59:00,57.7,56.9,29.77,SE,136,2.0,8.0,97,0.01,,---,0.19,VWS V14.01,2013-03-12 13:59:00,
2013-03-12 10:00:00,57.8,57.0,29.77,SE,134,1.0,8.0,97,0.01,,---,0.19,VWS V15.00,2013-03-12 14:00:00,
2013-03-12 10:14:00,57.9,57.1,29.75,WSW,244,0.0,8.0,97,0.05,,---,0.23,VWS V14.01,2013-03-12 14:14:00,
2013-03-12 10:29:00,58.0,57.2,29.74,SSW,196,0.0,9.0,97,0.08,,---,0.26,VWS V14.01,2013-03-12 14:29:00,
2013-03-12 10:30:00,58.0,57.2,29.74,NE,38,1.0,9.0,97,0.08,,---,0.26,VWS V15.00,2013-03-12 14:30:00,
2013-03-12 10:44:00,58.1,57.5,29.75,WSW,257,3.0,6.0,98,0.08,,---,0.26,VWS V14.01,2013-03-12 14:44:00,
2013-03-12 10:59:00,58.2,57.6,29.78,WSW,250,1.0,6.0,98,0.13,,---,0.31,VWS V14.01,2013-03-12 14:59:00,
2013-03-12 11:00:00,58.2,57.6,29.78,WNW,295,0.0,6.0,98,0.13,,---,0.31,VWS V15.00,2013-03-12 15:00:00,
2013-03-12 11:15:00,58.0,57.4,29.78,NW,309,0.0,3.0,98,0.23,,---,0.42,VWS V14.01,2013-03-12 15:15:00,
2013-03-12 11:30:00,57.5,56.9,29.79,NE,38,0.0,3.0,98,0.33,,---,0.52,VWS V14.01,2013-03-12 15:30:00,
2013-03-12 11:45:00,55.7,54.3,29.81,North,355,0.0,7.0,95,0.34,,---,0.60,VWS V14.01,2013-03-12 15:45:00,
2013-03-12 12:00:00,53.6,52.5,29.81,NNW,344,1.0,7.0,96,0.42,,---,0.68,VWS V14.01,2013-03-12 16:00:00,
2013-03-12 12:15:00,52.7,51.3,29.81,NE,52,1.0,6.0,95,0.43,,---,0.74,VWS V14.01,2013-03-12 16:15:00,
2013-03-12 12:30:00,51.5,50.1,29.82,West,275,3.0,6.0,95,0.48,,---,0.79,VWS V14.01,2013-03-12 16:30:00,
2013-03-12 12:45:00,52.1,51.0,29.82,North,5,4.0,8.0,96,0.31,,---,0.83,VWS V14.01,2013-03-12 16:45:00,
2013-03-12 13:00:00,53.7,51.7,29.81,West,280,0.0,8.0,93,0.32,,---,0.84,VWS V14.01,2013-03-12 17:00:00,
2013-03-12 13:15:00,54.9,51.7,29.82,North,11,1.0,10.0,89,0.16,,---,0.84,VWS V14.01,2013-03-12 17:15:00,
2013-03-12 13:30:00,55.6,51.2,29.83,NE,37,0.0,10.0,85,0.16,,---,0.84,VWS V14.01,2013-03-12 17:30:00,
2013-03-12 13:45:00,55.9,51.1,29.82,WNW,285,2.0,10.0,84,0.04,,---,0.84,VWS V14.01,2013-03-12 17:45:00,
2013-03-12 14:00:00,57.7,51.9,29.82,NNE,26,1.0,10.0,81,0.04,,---,0.84,VWS V14.01,2013-03-12 18:00:00,
2013-03-12 14:15:00,58.4,51.6,29.82,WSW,258,0.0,7.0,78,0.00,,---,0.84,VWS V14.01,2013-03-12 18:15:00,
2013-03-12 14:30:00,60.0,51.3,29.82,NNE,20,0.0,7.0,73,0.00,,---,0.84,VWS V14.01,2013-03-12 18:30:00,
2013-03-12 14:45:00,60.1,51.1,29.82,ENE,67,2.0,8.0,72,0.00,,---,0.84,VWS V14.01,2013-03-12 18:45:00,
2013-03-12 15:00:00,59.8,50.4,29.82,ENE,62,1.0,8.0,71,0.00,,---,0.84,VWS V14.01,2013-03-12 19:00:00,
2013-03-12 15:15:00,59.5,49.7,29.82,NE,50,3.0,8.0,70,0.00,,---,0.84,VWS V14.01,2013-03-12 19:15:00,
2013-03-12 15:30:00,59.0,49.6,29.82,North,360,2.0,8.0,71,0.00,,---,0.84,VWS V14.01,2013-03-12 19:30:00,
2013-03-12 15:45:00,58.2,49.2,29.82,NW,305,0.0,7.0,72,0.00,,---,0.84,VWS V14.01,2013-03-12 19:45:00,
2013-03-12 16:00:00,59.3,48.4,29.82,NE,53,0.0,7.0,67,0.00,,---,0.84,VWS V14.01,2013-03-12 20:00:00,
2013-03-12 16:15:00,58.5,48.4,29.83,NW,310,1.0,7.0,69,0.00,,---,0.84,VWS V14.01,2013-03-12 20:15:00,
2013-03-12 16:30:00,57.7,47.6,29.84,North,11,2.0,7.0,69,0.00,,---,0.84,VWS V14.01,2013-03-12 20:30:00,
2013-03-12 16:45:00,57.3,46.8,29.85,NE,54,2.0,5.0,68,0.00,,---,0.84,VWS V14.01,2013-03-12 20:45:00,
2013-03-12 17:00:00,56.8,45.6,29.86,NE,44,2.0,7.0,66,0.00,,---,0.84,VWS V14.01,2013-03-12 21:00:00,
2013-03-12 17:15:00,56.3,45.5,29.86,ESE,109,2.0,7.0,67,0.00,,---,0.84,VWS V14.01,2013-03-12 21:15:00,
2013-03-12 17:30:00,56.1,44.5,29.87,WNW,290,1.0,9.0,65,0.00,,---,0.84,VWS V14.01,2013-03-12 21:30:00,
2013-03-12 17:45:00,55.9,43.5,29.87,North,360,3.0,12.0,63,0.00,,---,0.84,VWS V14.01,2013-03-12 21:45:00,
2013-03-12 18:00:00,55.0,42.7,29.88,NNE,29,0.0,12.0,63,0.00,,---,0.84,VWS V14.01,2013-03-12 22:00:00,
2013-03-12 18:15:00,54.4,41.7,29.87,NNE,26,0.0,8.0,62,0.00,,---,0.84,VWS V14.01,2013-03-12 22:15:00,
2013-03-12 18:30:00,53.6,41.3,29.88,West,275,1.0,10.0,63,0.00,,---,0.84,VWS V14.01,2013-03-12 22:30:00,
2013-03-12 18:45:00,52.4,40.6,29.89,NE,54,4.0,5.0,64,0.00,,---,0.84,VWS V14.01,2013-03-12 22:45:00,
2013-03-12 19:00:00,51.3,40.0,29.91,WNW,302,0.0,9.0,65,0.00,,---,0.84,VWS V14.01,2013-03-12 23:00:00,
2013-03-12 19:15:00,50.2,38.9,29.92,WNW,292,5.0,9.0,65,0.00,,---,0.84,VWS V14.01,2013-03-12 23:15:00,
2013-03-12 19:30:00,49.3,38.4,29.92,NNW,344,1.0,9.0,66,0.00,,---,0.84,VWS V14.01,2013-03-12 23:30:00,
2013-03-12 19:45:00,48.7,38.2,29.93,NNE,19,0.0,10.0,67,0.00,,---,0.84,VWS V14.01,2013-03-12 23:45:00,
2013-03-12 20:00:00,48.1,37.7,29.94,ENE,65,0.0,10.0,67,0.00,,---,0.84,VWS V14.01,2013-03-13 00:00:00,
2013-03-12 20:15:00,47.5,37.1,29.95,NW,305,1.0,5.0,67,0.00,,---,0.84,VWS V14.01,2013-03-13 00:15:00,
2013-03-12 20:30:00,47.3,36.9,29.96,North,360,0.0,5.0,67,0.00,,---,0.84,VWS V14.01,2013-03-13 00:30:00,
2013-03-12 20:45:00,46.8,36.4,29.96,WSW,250,0.0,4.0,67,0.00,,---,0.84,VWS V14.01,2013-03-13 00:45:00,
2013-03-12 21:00:00,46.3,36.0,29.97,East,87,0.0,4.0,67,0.00,,---,0.84,VWS V14.01,2013-03-13 01:00:00,
2013-03-12 21:15:00,46.0,36.4,29.98,ENE,78,0.0,2.0,69,0.00,,---,0.84,VWS V14.01,2013-03-13 01:15:00,
2013-03-12 21:30:00,45.9,36.3,29.98,NNE,18,0.0,7.0,69,0.00,,---,0.84,VWS V14.01,2013-03-13 01:30:00,
2013-03-12 21:45:00,45.6,36.0,29.99,NW,316,0.0,4.0,69,0.00,,---,0.84,VWS V14.01,2013-03-13 01:45:00,
2013-03-12 22:00:00,45.2,35.7,30.00,NNE,17,3.0,6.0,69,0.00,,---,0.84,VWS V14.01,2013-03-13 02:00:00,
2013-03-12 22:15:00,45.2,34.9,30.00,NE,48,3.0,8.0,67,0.00,,---,0.84,VWS V14.01,2013-03-13 02:15:00,
2013-03-12 22:30:00,45.0,35.1,30.00,North,355,0.0,8.0,68,0.00,,---,0.84,VWS V14.01,2013-03-13 02:30:00,
2013-03-12 22:45:00,44.6,35.1,30.01,NE,56,0.0,9.0,69,0.00,,---,0.84,VWS V14.01,2013-03-13 02:45:00,
2013-03-12 23:00:00,44.4,34.9,30.01,North,5,0.0,9.0,69,0.00,,---,0.84,VWS V14.01,2013-03-13 03:00:00,
2013-03-12 23:16:00,44.1,35.0,30.01,NNE,29,0.0,3.0,70,0.00,,---,0.84,VWS V14.01,2013-03-13 03:16:00,
2013-03-12 23:30:00,43.8,34.7,30.02,NNE,28,0.0,3.0,70,0.00,,---,0.84,VWS V14.01,2013-03-13 03:30:00,
2013-03-12 23:46:00,43.1,34.7,30.02,NNE,24,0.0,1.0,72,0.00,,---,0.84,VWS V14.01,2013-03-13 03:46:00,